createdAt,value
2019-03-31T00:02:01.054Z,20.34
2019-03-31T00:10:40.839Z,19.94
2019-03-31T00:13:48.922Z,19.82
2019-03-31T00:16:38.200Z,19.62
2019-03-31T00:19:27.423Z,19.70
2019-03-31T00:22:00.467Z,19.67
2019-03-31T00:24:49.688Z,19.63
2019-03-31T00:31:00.838Z,19.48
2019-03-31T00:33:50.166Z,19.48
2019-03-31T00:36:39.757Z,19.63
2019-03-31T00:39:10.219Z,19.74
2019-03-31T00:41:40.663Z,19.72
2019-03-31T00:44:32.078Z,19.84
2019-03-31T00:47:21.258Z,19.61
2019-03-31T00:50:10.505Z,19.52
2019-03-31T00:52:41.002Z,19.76
2019-03-31T00:55:11.427Z,19.82
2019-03-31T00:58:00.649Z,19.65
2019-03-31T01:00:50.081Z,19.81
2019-03-31T01:03:58.187Z,19.74
2019-03-31T01:11:56.248Z,19.42
2019-03-31T01:14:48.083Z,19.23
2019-03-31T01:17:19.128Z,19.19
2019-03-31T01:22:35.815Z,19.27
2019-03-31T01:25:29.514Z,19.42
2019-03-31T01:28:22.266Z,19.31
2019-03-31T01:31:11.544Z,19.28
2019-03-31T01:34:00.832Z,19.52
2019-03-31T01:36:50.153Z,19.54
2019-03-31T01:39:22.019Z,19.31
2019-03-31T01:42:12.855Z,19.00
2019-03-31T01:47:51.443Z,18.75
2019-03-31T01:50:53.090Z,18.59
2019-03-31T01:53:44.726Z,18.45
2019-03-31T01:56:35.524Z,18.47
2019-03-31T01:59:27.126Z,18.23
2019-03-31T02:08:27.801Z,18.25
2019-03-31T02:11:18.387Z,18.43
2019-03-31T02:13:48.710Z,18.12
2019-03-31T02:16:19.076Z,18.02
2019-03-31T02:24:39.065Z,17.86
2019-03-31T02:33:57.147Z,17.71
2019-03-31T02:36:46.414Z,17.53
2019-03-31T02:42:25.780Z,17.56
2019-03-31T02:48:30.466Z,17.49
2019-03-31T02:51:43.930Z,17.47
2019-03-31T02:54:37.475Z,17.59
2019-03-31T02:57:47.627Z,17.62
2019-03-31T03:03:32.111Z,17.41
2019-03-31T03:06:43.146Z,17.32
2019-03-31T03:09:41.478Z,17.24
2019-03-31T03:15:57.506Z,17.18
2019-03-31T03:21:28.503Z,17.28
2019-03-31T03:24:18.934Z,17.32
2019-03-31T03:27:28.312Z,17.30
2019-03-31T03:36:33.081Z,17.05
2019-03-31T03:42:56.716Z,16.85
2019-03-31T03:49:15.448Z,16.77
2019-03-31T03:51:47.473Z,16.60
2019-03-31T03:54:39.278Z,16.75
2019-03-31T04:03:31.203Z,16.90
2019-03-31T04:09:12.865Z,16.88
2019-03-31T04:11:43.469Z,16.94
2019-03-31T04:17:42.695Z,16.89
2019-03-31T04:23:42.404Z,16.99
2019-03-31T04:29:33.603Z,17.00
2019-03-31T04:32:04.155Z,17.07
2019-03-31T04:34:34.676Z,17.08
2019-03-31T04:37:23.808Z,17.00
2019-03-31T04:39:54.251Z,16.96
2019-03-31T04:42:24.739Z,16.87
2019-03-31T04:45:34.430Z,16.84
2019-03-31T04:51:27.268Z,16.79
2019-03-31T04:54:17.793Z,16.56
2019-03-31T04:57:10.606Z,16.51
2019-03-31T04:59:51.372Z,16.44
2019-03-31T05:02:42.396Z,16.15
2019-03-31T05:05:32.411Z,15.86
2019-03-31T05:11:33.343Z,15.92
2019-03-31T05:14:26.666Z,15.90
2019-03-31T05:16:54.847Z,16.07
2019-03-31T05:19:44.091Z,16.05
2019-03-31T05:22:33.272Z,15.88
2019-03-31T05:25:23.282Z,15.93
2019-03-31T05:28:19.971Z,15.93
2019-03-31T05:34:18.942Z,15.96
2019-03-31T05:36:42.357Z,15.96
2019-03-31T05:39:12.847Z,15.86
2019-03-31T05:41:43.305Z,16.15
2019-03-31T05:44:32.547Z,16.72
2019-03-31T05:47:16.945Z,17.14
2019-03-31T05:49:53.878Z,17.43
2019-03-31T05:52:43.177Z,17.76
2019-03-31T05:58:23.806Z,18.42
2019-03-31T06:00:54.408Z,18.82
2019-03-31T06:03:43.648Z,18.97
2019-03-31T06:06:25.118Z,19.06
2019-03-31T06:12:24.774Z,19.30
2019-03-31T06:18:04.123Z,19.95
2019-03-31T06:24:23.303Z,20.83
2019-03-31T06:33:03.318Z,21.85
2019-03-31T06:36:04.353Z,22.06
2019-03-31T06:42:19.944Z,22.44
2019-03-31T06:51:18.560Z,22.71
2019-03-31T07:00:32.471Z,23.36
2019-03-31T07:03:34.277Z,23.59
2019-03-31T07:09:25.830Z,23.51
2019-03-31T07:12:15.913Z,23.37
2019-03-31T07:14:47.277Z,23.35
2019-03-31T07:17:18.500Z,23.63
2019-03-31T07:20:11.031Z,23.64
2019-03-31T07:26:05.510Z,23.87
2019-03-31T07:32:06.088Z,24.00
2019-03-31T07:38:08.514Z,24.07
2019-03-31T07:41:12.039Z,24.22
2019-03-31T07:44:15.331Z,24.26
2019-03-31T07:46:46.316Z,24.03
2019-03-31T07:55:31.440Z,24.06
2019-03-31T07:58:22.967Z,24.00
2019-03-31T08:01:13.151Z,24.14
2019-03-31T08:07:06.697Z,23.49
2019-03-31T08:09:50.433Z,23.08
2019-03-31T08:12:40.470Z,23.08
2019-03-31T08:15:31.281Z,22.66
2019-03-31T08:21:10.588Z,22.27
2019-03-31T08:23:41.948Z,22.12
2019-03-31T08:29:26.785Z,22.29
2019-03-31T08:32:29.173Z,22.72
2019-03-31T08:34:50.948Z,22.33
2019-03-31T08:37:25.199Z,22.29
2019-03-31T08:45:58.528Z,22.88
2019-03-31T08:48:29.744Z,23.49
2019-03-31T08:51:19.783Z,23.54
2019-03-31T08:53:51.058Z,23.64
2019-03-31T09:05:30.350Z,24.92
2019-03-31T09:11:41.965Z,25.17
2019-03-31T09:14:16.357Z,25.23
2019-03-31T09:16:47.632Z,25.62
2019-03-31T09:25:40.745Z,26.46
2019-03-31T09:28:16.815Z,26.91
2019-03-31T09:30:47.358Z,27.04
2019-03-31T09:33:17.962Z,27.32
2019-03-31T09:35:49.174Z,27.26
2019-03-31T09:38:38.406Z,27.25
2019-03-31T09:41:09.566Z,27.52
2019-03-31T09:47:15.640Z,27.51
2019-03-31T09:53:16.718Z,27.31
2019-03-31T10:05:51.387Z,27.81
2019-03-31T10:08:53.093Z,28.00
2019-03-31T10:11:57.073Z,27.97
2019-03-31T10:14:54.068Z,27.58
2019-03-31T10:17:23.629Z,27.77
2019-03-31T10:20:08.958Z,27.73
2019-03-31T10:25:32.201Z,27.80
2019-03-31T10:28:29.319Z,27.88
2019-03-31T10:37:04.663Z,28.84
2019-03-31T10:40:16.640Z,28.90
2019-03-31T10:46:03.098Z,29.89
2019-03-31T10:49:14.082Z,29.38
2019-03-31T10:52:48.369Z,29.66
2019-03-31T10:58:25.245Z,29.24
2019-03-31T11:04:21.853Z,29.68
2019-03-31T11:16:51.761Z,29.67
2019-03-31T11:19:41.790Z,29.87
2019-03-31T11:23:09.345Z,30.18
2019-03-31T11:26:10.898Z,30.29
2019-03-31T11:29:00.382Z,30.28
2019-03-31T11:32:21.226Z,29.90
2019-03-31T11:37:36.249Z,30.01
2019-03-31T11:49:34.551Z,29.49
2019-03-31T11:55:55.560Z,29.94
2019-03-31T11:59:03.118Z,29.86
2019-03-31T12:01:53.207Z,29.86
2019-03-31T12:04:57.706Z,29.52
2019-03-31T12:07:28.255Z,29.77
2019-03-31T12:10:06.529Z,29.48
2019-03-31T12:12:56.648Z,29.28
2019-03-31T12:16:20.187Z,29.28
2019-03-31T12:18:43.137Z,29.57
2019-03-31T12:21:16.498Z,29.72
2019-03-31T12:23:50.244Z,29.76
2019-03-31T12:30:23.342Z,30.00
2019-03-31T12:35:59.682Z,30.19
2019-03-31T12:38:49.903Z,29.92
2019-03-31T12:41:40.021Z,30.19
2019-03-31T12:47:34.713Z,30.36
2019-03-31T12:50:45.853Z,30.05
2019-03-31T12:56:52.187Z,29.46
2019-03-31T12:59:29.441Z,29.37
2019-03-31T13:08:29.638Z,28.78
2019-03-31T13:14:22.156Z,28.62
2019-03-31T13:17:13.939Z,28.57
2019-03-31T13:19:47.750Z,28.52
2019-03-31T13:22:37.881Z,28.33
2019-03-31T13:28:18.026Z,28.14
2019-03-31T13:31:19.986Z,28.20
2019-03-31T13:36:22.267Z,27.90
2019-03-31T13:39:13.767Z,27.89
2019-03-31T13:44:54.023Z,28.45
2019-03-31T13:50:07.572Z,29.05
2019-03-31T13:52:57.648Z,29.09
2019-03-31T13:55:34.238Z,29.41
2019-03-31T13:58:08.659Z,29.45
2019-03-31T14:03:30.747Z,29.74
2019-03-31T14:09:32.155Z,29.23
2019-03-31T14:12:08.589Z,28.87
2019-03-31T14:17:30.141Z,28.18
2019-03-31T14:20:38.986Z,28.09
2019-03-31T14:23:29.027Z,28.11
2019-03-31T14:26:50.783Z,27.94
2019-03-31T14:29:10.874Z,27.91
2019-03-31T14:31:42.305Z,27.76
2019-03-31T14:34:13.551Z,27.57
2019-03-31T14:37:05.952Z,27.43
2019-03-31T14:40:08.396Z,27.35
2019-03-31T14:45:37.607Z,27.13
2019-03-31T14:51:38.612Z,27.14
2019-03-31T14:54:47.417Z,27.18
2019-03-31T15:00:50.354Z,26.76
2019-03-31T15:03:42.155Z,26.65
2019-03-31T15:15:41.963Z,25.41
2019-03-31T15:18:45.116Z,25.09
2019-03-31T15:21:16.409Z,24.93
2019-03-31T15:24:08.556Z,24.72
2019-03-31T15:32:59.074Z,23.92
2019-03-31T15:39:08.576Z,23.89
2019-03-31T15:41:49.271Z,23.81
2019-03-31T15:44:51.687Z,23.64
2019-03-31T15:47:51.747Z,23.45
2019-03-31T15:51:02.417Z,23.51
2019-03-31T15:54:08.794Z,23.36
2019-03-31T15:56:31.754Z,23.43
2019-03-31T15:59:24.162Z,23.40
2019-03-31T16:10:57.775Z,23.46
2019-03-31T16:13:27.876Z,23.49
2019-03-31T16:16:01.307Z,23.42
2019-03-31T16:18:51.208Z,23.42
2019-03-31T16:21:44.095Z,23.40
2019-03-31T16:24:50.521Z,23.49
2019-03-31T16:27:21.324Z,23.66
2019-03-31T16:32:54.428Z,23.77
2019-03-31T16:35:43.423Z,23.83
2019-03-31T16:44:41.354Z,23.56
2019-03-31T16:47:51.429Z,23.56
2019-03-31T16:50:43.759Z,23.61
2019-03-31T16:53:26.634Z,23.19
2019-03-31T17:03:21.322Z,23.08
2019-03-31T17:05:59.580Z,23.08
2019-03-31T17:08:49.493Z,22.73
2019-03-31T17:12:00.231Z,22.75
2019-03-31T17:15:12.036Z,22.80
2019-03-31T17:18:01.778Z,22.83
2019-03-31T17:20:32.525Z,22.53
2019-03-31T17:23:03.234Z,22.54
2019-03-31T17:25:53.171Z,22.41
2019-03-31T17:28:23.247Z,22.27
2019-03-31T17:31:32.115Z,22.31
2019-03-31T17:34:19.157Z,22.20
2019-03-31T17:37:00.245Z,21.77
2019-03-31T17:40:05.060Z,21.77
2019-03-31T17:43:20.950Z,21.65
2019-03-31T17:45:35.340Z,21.65
2019-03-31T17:51:32.931Z,21.42
2019-03-31T17:54:22.016Z,21.16
2019-03-31T17:57:25.060Z,20.98
2019-03-31T18:02:34.159Z,20.72
2019-03-31T18:05:23.085Z,20.75
2019-03-31T18:11:22.616Z,20.45
2019-03-31T18:17:19.113Z,20.19
2019-03-31T18:22:59.616Z,19.84
2019-03-31T18:29:51.058Z,19.63
2019-03-31T18:32:14.429Z,19.56
2019-03-31T18:35:08.502Z,19.46
2019-03-31T18:37:39.566Z,19.34
2019-03-31T18:40:16.142Z,19.21
2019-03-31T18:42:59.375Z,19.09
2019-03-31T18:49:47.235Z,18.85
2019-03-31T18:52:25.794Z,18.75
2019-03-31T18:55:35.296Z,18.65
2019-03-31T19:01:24.428Z,18.70
2019-03-31T19:04:57.276Z,18.57
2019-03-31T19:07:28.856Z,18.57
2019-03-31T19:10:48.710Z,18.55
2019-03-31T19:16:53.350Z,18.54
2019-03-31T19:20:00.842Z,18.43
2019-03-31T19:23:13.067Z,18.37
2019-03-31T19:26:32.269Z,18.35
2019-03-31T19:30:42.778Z,18.32
2019-03-31T19:32:30.884Z,18.27
2019-03-31T19:35:38.577Z,18.31
2019-03-31T19:42:07.463Z,18.18
2019-03-31T19:44:58.042Z,18.24
2019-03-31T19:47:48.532Z,18.17
2019-03-31T19:50:37.414Z,18.10
2019-03-31T19:53:45.709Z,18.06
2019-03-31T19:56:37.110Z,18.11
2019-03-31T19:59:47.935Z,17.90
2019-03-31T20:03:18.933Z,17.93
2019-03-31T20:06:12.228Z,17.87
2019-03-31T20:09:00.944Z,17.75
2019-03-31T20:12:23.264Z,17.83
2019-03-31T20:15:06.153Z,17.71
2019-03-31T20:18:15.529Z,17.70
2019-03-31T20:21:12.384Z,17.49
2019-03-31T20:24:25.489Z,17.49
2019-03-31T20:30:38.510Z,17.47
2019-03-31T20:36:49.172Z,17.50
2019-03-31T20:40:00.290Z,17.54
2019-03-31T20:45:32.218Z,17.26
2019-03-31T20:48:01.971Z,17.35
2019-03-31T20:50:35.967Z,17.18
2019-03-31T20:53:33.354Z,17.28
2019-03-31T20:55:43.235Z,17.11
2019-03-31T20:58:52.497Z,17.18
2019-03-31T21:02:03.397Z,17.14
2019-03-31T21:04:54.135Z,17.06
2019-03-31T21:07:46.184Z,17.01
2019-03-31T21:10:56.591Z,17.05
2019-03-31T21:13:50.072Z,16.93
2019-03-31T21:16:39.897Z,16.94
2019-03-31T21:25:00.896Z,16.86
2019-03-31T21:28:04.657Z,16.65
2019-03-31T21:30:48.079Z,16.69
2019-03-31T21:33:20.711Z,16.74
2019-03-31T21:39:37.352Z,16.60
2019-03-31T21:42:48.630Z,16.55
2019-03-31T21:45:39.907Z,16.49
2019-03-31T21:48:11.470Z,16.58
2019-03-31T21:51:19.471Z,16.55
2019-03-31T21:54:22.467Z,16.37
2019-03-31T21:57:12.787Z,16.34
2019-03-31T22:00:02.587Z,16.32
2019-03-31T22:02:53.206Z,16.36
2019-03-31T22:05:23.044Z,16.29
2019-03-31T22:08:09.199Z,16.27
2019-03-31T22:10:57.510Z,16.18
2019-03-31T22:13:47.469Z,16.12
2019-03-31T22:16:18.246Z,16.08
2019-03-31T22:19:08.064Z,16.00
2019-03-31T22:21:58.777Z,15.96
2019-03-31T22:24:29.542Z,16.01
2019-03-31T22:30:05.074Z,16.05
2019-03-31T22:38:45.402Z,15.98
2019-03-31T22:41:15.382Z,15.98
2019-03-31T22:44:03.954Z,15.76
2019-03-31T22:46:33.979Z,15.76
2019-03-31T22:49:27.463Z,15.72
2019-03-31T22:52:38.051Z,15.90
2019-03-31T22:57:58.763Z,15.78
2019-03-31T23:01:08.315Z,15.83
2019-03-31T23:04:18.168Z,15.82
2019-03-31T23:07:07.028Z,15.83
2019-03-31T23:13:06.031Z,15.82
2019-03-31T23:15:35.981Z,15.82
2019-03-31T23:18:08.873Z,15.82
2019-03-31T23:20:40.772Z,15.83
2019-03-31T23:26:32.618Z,15.77
2019-03-31T23:29:21.562Z,15.76
2019-03-31T23:34:44.903Z,15.67
2019-03-31T23:37:14.833Z,15.67
2019-03-31T23:39:44.690Z,15.70
2019-03-31T23:42:34.531Z,15.67
2019-03-31T23:45:06.641Z,15.61
2019-03-31T23:50:18.243Z,15.65
2019-03-31T23:52:48.313Z,15.49
2019-03-31T23:55:20.225Z,15.66
2019-03-31T23:57:50.265Z,15.59
